Time;durP1;ratioP1;P1;durP2;ratioP2;P2;SDS_P1;SDS_P2;PMS_P1;PMS_P2;Temp;Humidity;BMP_temperature;BMP_pressure;BME280_temperature;BME280_humidity;BME280_pressure;Samples;Min_cycle;Max_cycle;Signal;HPM_P1;HPM_P2
2023/08/18 00:00:19;;;;;;;24.57;16.37;;;;;;;17.79;100.00;101125.69;5088769;28;20281;-79
2023/08/18 00:02:46;;;;;;;25.60;17.10;;;;;;;17.80;100.00;101119.31;5089263;28;20959;-80
2023/08/18 00:05:12;;;;;;;28.40;17.60;;;;;;;17.82;100.00;101114.66;5089152;28;20329;-77
2023/08/18 00:07:39;;;;;;;28.73;19.20;;;;;;;17.80;100.00;101116.63;5090901;28;20212;-78
2023/08/18 00:10:08;;;;;;;25.13;17.47;;;;;;;17.80;100.00;101103.16;5090308;28;20232;-81
2023/08/18 00:12:34;;;;;;;29.50;18.53;;;;;;;17.80;100.00;101099.59;5089601;28;20212;-78
2023/08/18 00:15:01;;;;;;;28.77;17.57;;;;;;;17.81;100.00;101112.09;5090504;28;20211;-80
2023/08/18 00:17:29;;;;;;;24.57;16.93;;;;;;;17.81;100.00;101112.94;5089097;28;20708;-78
2023/08/18 00:19:55;;;;;;;27.20;16.03;;;;;;;17.80;100.00;101105.84;5089334;28;20225;-79
2023/08/18 00:22:22;;;;;;;26.30;16.97;;;;;;;17.79;100.00;101108.66;5087194;28;20213;-78
2023/08/18 00:24:48;;;;;;;25.27;16.80;;;;;;;17.78;100.00;101106.94;5089255;28;20221;-79
2023/08/18 00:27:15;;;;;;;24.23;16.47;;;;;;;17.77;100.00;101116.88;5090232;28;20212;-79
2023/08/18 00:29:41;;;;;;;28.60;17.63;;;;;;;17.77;100.00;101114.19;5088741;28;20209;-79
2023/08/18 00:32:07;;;;;;;31.40;18.00;;;;;;;17.77;100.00;101100.72;5090341;28;20210;-80
2023/08/18 00:34:35;;;;;;;27.03;16.63;;;;;;;17.75;100.00;101097.28;5083423;28;20230;-79
2023/08/18 00:37:02;;;;;;;25.53;16.10;;;;;;;17.76;100.00;101109.78;5085234;28;20624;-78
2023/08/18 00:39:28;;;;;;;25.07;15.90;;;;;;;17.76;100.00;101107.09;5088007;28;20219;-78
2023/08/18 00:41:55;;;;;;;23.47;17.13;;;;;;;17.76;100.00;101103.53;5086929;28;20293;-79
2023/08/18 00:44:21;;;;;;;26.27;18.30;;;;;;;17.76;100.00;101100.84;5087426;28;21188;-78
2023/08/18 00:46:48;;;;;;;26.03;17.33;;;;;;;17.77;100.00;101100.72;5083869;28;20209;-80
2023/08/18 00:49:18;;;;;;;22.07;15.97;;;;;;;17.78;100.00;101096.19;5087091;28;20209;-78
2023/08/18 00:51:46;;;;;;;27.13;16.70;;;;;;;17.75;100.00;101101.81;5090820;28;20206;-78
2023/08/18 00:54:13;;;;;;;30.13;17.20;;;;;;;17.76;100.00;101103.53;5088288;28;20236;-78
2023/08/18 00:56:41;;;;;;;27.93;17.43;;;;;;;17.75;100.00;101093.75;5086817;28;20237;-78
2023/08/18 00:59:07;;;;;;;29.17;17.63;;;;;;;17.75;100.00;101091.91;5087201;28;20221;-79
2023/08/18 01:01:35;;;;;;;28.50;16.87;;;;;;;17.75;100.00;101082.97;5087641;28;20666;-79
2023/08/18 01:04:02;;;;;;;28.10;17.17;;;;;;;17.76;100.00;101084.69;5088528;28;20260;-78
2023/08/18 01:06:28;;;;;;;27.50;16.63;;;;;;;17.76;100.00;101090.91;5087629;28;20210;-79
2023/08/18 01:08:56;;;;;;;32.30;18.10;;;;;;;17.78;100.00;101088.94;5089291;28;20210;-79
2023/08/18 01:11:32;;;;;;;30.10;18.17;;;;;;;17.75;100.00;101089.22;5087855;28;20292;-78
2023/08/18 01:14:08;;;;;;;30.63;18.37;;;;;;;17.75;100.00;101091.03;5087102;28;20239;-77
2023/08/18 01:16:37;;;;;;;29.67;18.90;;;;;;;17.74;100.00;101100.13;5087852;28;20284;-76
2023/08/18 01:19:04;;;;;;;38.17;17.97;;;;;;;17.69;100.00;101106.78;5084864;28;20224;-77
2023/08/18 01:21:31;;;;;;;28.60;17.73;;;;;;;17.68;100.00;101102.38;5086009;28;20209;-77
2023/08/18 01:24:03;;;;;;;38.47;19.70;;;;;;;17.68;100.00;101110.44;5088766;28;20225;-77
2023/08/18 01:26:29;;;;;;;36.70;18.57;;;;;;;17.67;100.00;101103.34;5082046;28;20263;-78
2023/08/18 01:28:55;;;;;;;30.63;18.33;;;;;;;17.67;100.00;101103.34;5088055;28;20208;-77
2023/08/18 01:31:26;;;;;;;33.73;19.07;;;;;;;17.68;100.00;101109.59;5087044;28;20213;-79
2023/08/18 01:33:57;;;;;;;32.80;18.83;;;;;;;17.68;100.00;101106.91;5087031;28;20318;-79
2023/08/18 01:36:26;;;;;;;34.40;18.90;;;;;;;17.68;100.00;101102.38;5085760;28;20213;-79
2023/08/18 01:38:53;;;;;;;35.60;19.53;;;;;;;17.68;100.00;101096.97;5087567;28;20240;-79
2023/08/18 01:41:24;;;;;;;35.63;19.90;;;;;;;17.69;100.00;101097.84;5086874;28;20211;-79
2023/08/18 01:43:51;;;;;;;41.93;21.17;;;;;;;17.70;100.00;101102.25;5083450;28;20227;-79
2023/08/18 01:46:17;;;;;;;40.17;19.33;;;;;;;17.70;100.00;101094.16;5091030;28;20205;-77
2023/08/18 01:48:44;;;;;;;39.87;20.27;;;;;;;17.69;100.00;101096.00;5085492;28;20228;-77
2023/08/18 01:51:11;;;;;;;40.03;20.63;;;;;;;17.71;100.00;101086.94;5091917;28;20232;-78
2023/08/18 01:53:37;;;;;;;41.17;20.47;;;;;;;17.72;100.00;101085.94;5092031;28;20653;-77
2023/08/18 01:56:04;;;;;;;38.53;20.10;;;;;;;17.71;100.00;101085.09;5085229;28;20233;-79
2023/08/18 01:58:32;;;;;;;46.60;21.23;;;;;;;17.71;100.00;101089.63;5087263;28;20235;-77
2023/08/18 02:00:59;;;;;;;37.37;20.90;;;;;;;17.70;100.00;101080.69;5089310;28;20212;-78
2023/08/18 02:03:26;;;;;;;36.60;20.50;;;;;;;17.71;100.00;101082.41;5091299;28;20245;-78
2023/08/18 02:05:53;;;;;;;41.77;20.70;;;;;;;17.70;100.00;101078.00;5091440;28;20703;-79
2023/08/18 02:08:20;;;;;;;40.17;20.83;;;;;;;17.69;100.00;101078.97;5096204;28;20250;-78
2023/08/18 02:10:46;;;;;;;39.03;21.83;;;;;;;17.68;100.00;101079.97;5091510;28;20202;-79
2023/08/18 02:13:14;;;;;;;36.20;19.27;;;;;;;17.67;100.00;101075.56;5094491;28;20230;-79
2023/08/18 02:15:42;;;;;;;39.80;20.93;;;;;;;17.65;100.00;101077.53;5092037;28;20315;-79
2023/08/18 02:18:08;;;;;;;38.17;20.53;;;;;;;17.62;100.00;101075.91;5082749;28;20649;-78
2023/08/18 02:20:36;;;;;;;40.30;21.03;;;;;;;17.63;100.00;101071.38;5097458;28;20448;-80
2023/08/18 02:23:03;;;;;;;42.67;18.87;;;;;;;17.61;100.00;101066.13;5087752;28;20230;-79
2023/08/18 02:25:30;;;;;;;41.17;21.37;;;;;;;17.60;100.00;101060.88;5095936;28;20209;-80
2023/08/18 02:27:56;;;;;;;45.70;21.93;;;;;;;17.59;100.00;101056.47;5088738;28;20673;-79
2023/08/18 02:30:23;;;;;;;47.73;21.50;;;;;;;17.57;100.00;101051.22;5089719;28;20599;-80
2023/08/18 02:32:50;;;;;;;39.97;21.10;;;;;;;17.57;100.00;101048.53;5091197;28;20201;-79
2023/08/18 02:35:17;;;;;;;35.93;21.30;;;;;;;17.58;100.00;101052.06;5090489;28;20241;-77
2023/08/18 02:37:44;;;;;;;40.87;21.13;;;;;;;17.56;100.00;101044.13;5087622;28;20206;-79
2023/08/18 02:40:11;;;;;;;40.53;21.37;;;;;;;17.56;100.00;101045.97;5091249;28;20228;-78
2023/08/18 02:42:37;;;;;;;37.53;21.27;;;;;;;17.56;100.00;101044.13;5089565;28;20694;-79
2023/08/18 02:45:04;;;;;;;43.70;23.57;;;;;;;17.56;100.00;101048.66;5090378;28;20221;-79
2023/08/18 02:47:31;;;;;;;42.33;21.50;;;;;;;17.54;100.00;101046.13;5091351;28;20205;-79
2023/08/18 02:49:59;;;;;;;42.97;21.37;;;;;;;17.54;100.00;101050.66;5090685;28;20209;-78
2023/08/18 02:52:25;;;;;;;43.97;22.27;;;;;;;17.53;100.00;101046.25;5089745;28;20208;-80
2023/08/18 02:54:52;;;;;;;40.77;22.33;;;;;;;17.53;100.00;101057.03;5087474;28;20227;-78
2023/08/18 02:57:18;;;;;;;44.50;22.70;;;;;;;17.51;100.00;101049.06;5089675;28;20216;-79
2023/08/18 02:59:44;;;;;;;36.93;20.97;;;;;;;17.51;100.00;101050.91;5086281;28;20234;-78
2023/08/18 03:02:11;;;;;;;39.03;21.20;;;;;;;17.50;100.00;101059.97;5092807;28;20217;-80
2023/08/18 03:04:38;;;;;;;39.17;22.17;;;;;;;17.50;100.00;101055.44;5089750;28;20710;-78
2023/08/18 03:07:06;;;;;;;40.03;21.13;;;;;;;17.49;100.00;101061.81;5089858;28;20259;-78
2023/08/18 03:09:43;;;;;;;42.30;23.23;;;;;;;17.50;100.00;101054.59;5090424;28;20655;-80
2023/08/18 03:12:09;;;;;;;40.97;21.50;;;;;;;17.50;100.00;101065.34;5090510;28;20710;-79
2023/08/18 03:14:36;;;;;;;39.80;22.43;;;;;;;17.49;100.00;101069.88;5088180;28;20238;-77
2023/08/18 03:17:02;;;;;;;37.97;21.70;;;;;;;17.49;100.00;101059.13;5086954;28;20211;-81
2023/08/18 03:19:29;;;;;;;41.93;22.10;;;;;;;17.49;100.00;101061.81;5090894;28;20238;-79
2023/08/18 03:21:56;;;;;;;42.77;23.97;;;;;;;17.49;100.00;101050.19;5090103;28;20202;-78
2023/08/18 03:24:24;;;;;;;44.87;24.17;;;;;;;17.48;100.00;101060.09;5091039;28;20238;-78
2023/08/18 03:26:50;;;;;;;45.93;23.10;;;;;;;17.49;100.00;101042.97;5089376;28;20654;-79
2023/08/18 03:29:17;;;;;;;45.63;24.63;;;;;;;17.49;100.00;101045.66;5090166;28;20563;-80
2023/08/18 03:31:43;;;;;;;38.50;22.77;;;;;;;17.49;100.00;101042.09;5087616;28;20201;-79
2023/08/18 03:34:10;;;;;;;30.97;20.30;;;;;;;17.48;100.00;101043.94;5091843;28;20223;-78
2023/08/18 03:36:36;;;;;;;36.73;20.43;;;;;;;17.48;100.00;101049.31;5089770;28;20611;-78
2023/08/18 03:39:03;;;;;;;35.80;20.87;;;;;;;17.47;100.00;101039.53;5089611;28;20235;-78
2023/08/18 03:41:31;;;;;;;41.00;22.63;;;;;;;17.45;100.00;101037.97;5090415;28;20201;-78
2023/08/18 03:43:58;;;;;;;45.83;23.33;;;;;;;17.44;100.00;101045.19;5090911;28;20691;-78
2023/08/18 03:46:26;;;;;;;42.23;23.03;;;;;;;17.42;100.00;101038.22;5088405;28;20207;-79
2023/08/18 03:48:52;;;;;;;38.60;21.90;;;;;;;17.43;100.00;101038.09;5088155;28;20203;-79
2023/08/18 03:51:19;;;;;;;37.77;23.43;;;;;;;17.43;100.00;101035.41;5087853;28;20211;-81
2023/08/18 03:53:45;;;;;;;42.63;22.67;;;;;;;17.42;100.00;101035.53;5088801;28;20782;-80
2023/08/18 03:56:12;;;;;;;40.10;23.13;;;;;;;17.42;100.00;101049.00;5090260;28;20592;-79
2023/08/18 03:58:40;;;;;;;40.53;22.13;;;;;;;17.43;100.00;101048.00;5088865;28;20198;-78
2023/08/18 04:01:08;;;;;;;38.03;22.57;;;;;;;17.40;100.00;101050.97;5089127;28;20208;-78
2023/08/18 04:03:36;;;;;;;38.33;21.60;;;;;;;17.38;100.00;101042.19;5090152;28;20317;-78
2023/08/18 04:06:03;;;;;;;39.07;23.23;;;;;;;17.34;100.00;101047.81;5089358;28;20209;-79
2023/08/18 04:08:32;;;;;;;36.93;21.57;;;;;;;17.35;100.00;101041.47;5086780;28;20275;-78
2023/08/18 04:10:59;;;;;;;44.07;24.43;;;;;;;17.38;100.00;101034.09;5083394;28;20206;-79
2023/08/18 04:13:25;;;;;;;43.23;22.80;;;;;;;17.35;100.00;101049.53;5086613;28;20280;-78
2023/08/18 04:15:53;;;;;;;40.50;21.93;;;;;;;17.35;100.00;101044.16;5088387;28;20230;-79
2023/08/18 04:18:20;;;;;;;38.70;22.37;;;;;;;17.35;100.00;101046.84;5087647;28;20210;-78
2023/08/18 04:20:46;;;;;;;39.93;22.07;;;;;;;17.37;100.00;101048.56;5082271;28;20222;-78
2023/08/18 04:23:13;;;;;;;42.90;23.10;;;;;;;17.36;100.00;101042.31;5087953;28;20221;-79
2023/08/18 04:25:42;;;;;;;44.10;23.63;;;;;;;17.37;100.00;101048.56;5091606;28;20209;-78
2023/08/18 04:28:08;;;;;;;44.70;23.70;;;;;;;17.35;100.00;101046.00;5091415;28;20210;-78
2023/08/18 04:30:35;;;;;;;41.60;22.80;;;;;;;17.37;100.00;101051.25;5087700;28;20213;-79
2023/08/18 04:33:03;;;;;;;47.83;24.40;;;;;;;17.37;100.00;101056.63;5083411;28;20226;-78
2023/08/18 04:35:29;;;;;;;43.03;23.13;;;;;;;17.38;100.00;101061.84;5089334;28;20211;-79
2023/08/18 04:37:56;;;;;;;44.63;23.27;;;;;;;17.38;100.00;101061.03;5084716;28;20205;-78
2023/08/18 04:40:23;;;;;;;45.00;23.03;;;;;;;17.38;100.00;101059.16;5091223;28;20229;-80
2023/08/18 04:42:50;;;;;;;40.47;22.60;;;;;;;17.38;100.00;101053.78;5089791;28;20213;-80
2023/08/18 04:45:16;;;;;;;41.50;22.80;;;;;;;17.35;100.00;101046.84;5101622;28;20581;-77
2023/08/18 04:47:43;;;;;;;40.80;22.43;;;;;;;17.35;100.00;101052.22;5093277;28;20207;-78
2023/08/18 04:50:11;;;;;;;45.63;23.17;;;;;;;17.34;100.00;101057.75;5092328;28;20199;-78
2023/08/18 04:52:37;;;;;;;42.77;22.57;;;;;;;17.34;100.00;101053.22;5090770;28;20207;-76
2023/08/18 04:55:05;;;;;;;41.17;22.43;;;;;;;17.37;100.00;101056.63;5091357;28;20232;-77
2023/08/18 04:57:31;;;;;;;40.63;22.57;;;;;;;17.36;100.00;101047.69;5094334;28;20202;-77
2023/08/18 04:59:58;;;;;;;43.37;23.43;;;;;;;17.32;100.00;101052.47;5089965;28;20239;-77
2023/08/18 05:02:26;;;;;;;43.20;22.87;;;;;;;17.32;100.00;101049.78;5089025;28;20864;-81
2023/08/18 05:04:53;;;;;;;47.83;23.97;;;;;;;17.32;100.00;101057.88;5083326;28;20286;-77
2023/08/18 05:07:21;;;;;;;44.73;23.73;;;;;;;17.34;100.00;101053.22;5094930;28;20199;-76
2023/08/18 05:09:48;;;;;;;47.97;24.07;;;;;;;17.34;100.00;101058.59;5086216;28;20282;-77
2023/08/18 05:12:14;;;;;;;49.23;23.67;;;;;;;17.35;100.00;101054.06;5090055;28;20210;-77
2023/08/18 05:14:41;;;;;;;52.70;24.73;;;;;;;17.35;100.00;101049.53;5092311;28;20241;-77
2023/08/18 05:17:08;;;;;;;44.10;23.83;;;;;;;17.35;100.00;101051.38;5086285;28;20228;-76
2023/08/18 05:19:34;;;;;;;43.73;23.40;;;;;;;17.36;100.00;101045.00;5090770;28;20240;-76
2023/08/18 05:22:01;;;;;;;48.77;23.80;;;;;;;17.37;100.00;101044.03;5090689;28;20207;-78
2023/08/18 05:24:29;;;;;;;47.53;24.67;;;;;;;17.35;100.00;101038.75;5091637;28;20225;-80
2023/08/18 05:26:55;;;;;;;44.70;23.00;;;;;;;17.36;100.00;101039.63;5095250;28;20201;-78
2023/08/18 05:29:21;;;;;;;45.93;22.83;;;;;;;17.37;100.00;101040.47;5096835;28;20206;-80
2023/08/18 05:31:49;;;;;;;44.80;23.47;;;;;;;17.38;100.00;101051.09;5096632;28;20205;-81
2023/08/18 05:34:15;;;;;;;47.50;24.20;;;;;;;17.38;100.00;101044.88;5096549;28;20229;-81
2023/08/18 05:36:42;;;;;;;41.20;22.73;;;;;;;17.38;100.00;101050.25;5096435;28;20589;-81
2023/08/18 05:39:08;;;;;;;40.40;21.50;;;;;;;17.40;100.00;101046.44;5097033;28;20229;-80
2023/08/18 05:41:36;;;;;;;40.40;23.00;;;;;;;17.44;100.00;101050.56;5097143;28;20222;-79
2023/08/18 05:44:03;;;;;;;44.57;23.57;;;;;;;17.46;100.00;101045.91;5096617;28;20241;-81
2023/08/18 05:46:30;;;;;;;41.07;22.47;;;;;;;17.45;100.00;101046.03;5096872;28;20211;-79
2023/08/18 05:48:56;;;;;;;43.63;23.40;;;;;;;17.44;100.00;101045.19;5096872;28;20573;-81
2023/08/18 05:51:23;;;;;;;46.07;22.33;;;;;;;17.46;100.00;101045.91;5084163;28;20785;-80
2023/08/18 05:53:49;;;;;;;45.70;22.67;;;;;;;17.49;100.00;101039.41;5088841;28;20745;-79
2023/08/18 05:56:17;;;;;;;45.70;23.83;;;;;;;17.54;100.00;101042.56;5097138;28;20293;-79
2023/08/18 05:58:45;;;;;;;43.17;23.07;;;;;;;17.54;100.00;101045.25;5096842;28;20201;-79
2023/08/18 06:01:11;;;;;;;41.93;22.27;;;;;;;17.57;100.00;101042.28;5103159;28;20222;-80
2023/08/18 06:03:38;;;;;;;39.93;22.67;;;;;;;17.61;100.00;101051.81;5096592;28;20263;-80
2023/08/18 06:06:05;;;;;;;40.47;22.17;;;;;;;17.62;100.00;101046.28;5096513;28;20211;-80
2023/08/18 06:08:31;;;;;;;40.50;21.73;;;;;;;17.62;100.00;101045.44;5096428;28;20194;-79
2023/08/18 06:10:58;;;;;;;32.97;20.83;;;;;;;17.62;100.00;101045.44;5096463;28;20199;-80
2023/08/18 06:13:24;;;;;;;39.33;22.03;;;;;;;17.67;100.00;101045.94;5096422;28;20228;-79
2023/08/18 06:15:54;;;;;;;32.27;20.87;;;;;;;17.72;100.00;101048.25;5096244;28;20221;-81
2023/08/18 06:18:21;;;;;;;38.93;20.70;;;;;;;17.76;100.00;101050.50;5095106;28;20205;-80
2023/08/18 06:20:47;;;;;;;38.53;20.67;;;;;;;17.80;100.00;101062.72;5095150;28;20226;-80
2023/08/18 06:23:14;;;;;;;39.60;22.00;;;;;;;17.82;100.00;101052.69;5093600;28;20227;-80
2023/08/18 06:25:40;;;;;;;43.47;22.00;;;;;;;17.86;100.00;101051.44;5092231;28;20217;-79
2023/08/18 06:28:07;;;;;;;45.17;23.63;;;;;;;17.88;100.00;101062.06;5091242;28;20689;-79
2023/08/18 06:30:33;;;;;;;42.70;23.23;;;;;;;17.93;100.00;101062.50;5089357;28;20202;-81
2023/08/18 06:33:02;;;;;;;41.43;21.63;;;;;;;17.96;100.00;101059.53;5084850;28;20206;-79
2023/08/18 06:35:28;;;;;;;37.07;20.93;;;;;;;18.01;100.00;101063.56;5085129;28;20218;-79
2023/08/18 06:37:55;;;;;;;36.40;20.30;;;;;;;18.07;100.00;101058.63;5088513;28;20618;-77
2023/08/18 06:40:21;;;;;;;37.50;20.77;;;;;;;18.11;100.00;101060.03;5090440;28;20222;-77
2023/08/18 06:42:49;;;;;;;40.50;22.03;;;;;;;18.18;100.00;101070.16;5090401;28;20205;-78
2023/08/18 06:45:15;;;;;;;41.53;22.00;;;;;;;18.24;100.00;101063.38;5090520;28;20212;-79
2023/08/18 06:47:42;;;;;;;37.90;20.17;;;;;;;18.30;100.00;101052.88;5081314;28;20214;-78
2023/08/18 06:50:11;;;;;;;37.47;20.67;;;;;;;18.35;100.00;101063.25;5085175;28;20208;-80
2023/08/18 06:52:37;;;;;;;37.47;20.97;;;;;;;18.40;100.00;101063.69;5089379;28;20207;-79
2023/08/18 06:55:04;;;;;;;36.97;20.70;;;;;;;18.48;100.00;101065.69;5090361;28;20241;-80
2023/08/18 06:57:31;;;;;;;34.80;21.30;;;;;;;18.52;100.00;101057.19;5084914;28;20215;-80
2023/08/18 06:59:57;;;;;;;32.53;19.30;;;;;;;18.56;100.00;101065.88;5089728;28;20207;-78
2023/08/18 07:02:24;;;;;;;34.13;19.87;;;;;;;18.61;100.00;101058.25;5083771;28;20200;-80
2023/08/18 07:04:50;;;;;;;33.10;18.57;;;;;;;18.64;100.00;101057.97;5085151;28;20221;-79
2023/08/18 07:07:18;;;;;;;29.03;18.50;;;;;;;18.68;100.00;101064.78;5089880;28;20210;-77
2023/08/18 07:09:45;;;;;;;28.47;18.53;;;;;;;18.72;100.00;101061.69;5088214;28;20198;-79
2023/08/18 07:12:11;;;;;;;31.70;19.50;;;;;;;18.77;100.00;101057.72;5083897;28;20642;-79
2023/08/18 07:14:38;;;;;;;28.37;18.10;;;;;;;18.84;100.00;101064.25;5084273;28;20740;-78
2023/08/18 07:17:04;;;;;;;26.93;17.20;;;;;;;18.89;100.00;101064.69;5084176;28;20591;-79
2023/08/18 07:19:31;;;;;;;24.03;17.17;;;;;;;18.94;100.00;101071.38;5086864;28;20291;-79
2023/08/18 07:21:57;;;;;;;26.60;16.97;;;;;;;19.00;100.00;101051.03;5088957;28;20227;-78
2023/08/18 07:24:25;;;;;;;27.53;18.87;;;;;;;19.07;100.00;101058.44;5085843;28;20225;-79
2023/08/18 07:26:53;;;;;;;29.57;20.33;;;;;;;19.15;100.00;101057.75;5089364;28;21563;-79
2023/08/18 07:29:19;;;;;;;41.30;23.87;;;;;;;19.24;100.00;101061.41;5088193;28;20229;-79
2023/08/18 07:31:46;;;;;;;38.73;25.13;;;;;;;19.31;100.00;101062.56;5090608;28;20216;-79
2023/08/18 07:34:12;;;;;;;38.10;23.50;;;;;;;19.36;100.00;101060.25;5085810;28;20234;-80
2023/08/18 07:36:39;;;;;;;44.70;26.40;;;;;;;19.43;100.00;101056.00;5088372;28;20219;-79
2023/08/18 07:39:10;;;;;;;49.87;27.60;;;;;;;19.48;100.00;101061.84;5082218;28;20279;-79
2023/08/18 07:41:38;;;;;;;45.63;27.23;;;;;;;19.51;100.00;101060.72;5088389;28;20769;-80
2023/08/18 07:44:05;;;;;;;42.93;26.43;;;;;;;19.59;100.00;101058.13;5088333;28;20228;-78
2023/08/18 07:46:32;;;;;;;38.67;23.70;;;;;;;19.68;100.00;101054.56;5086780;28;20209;-79
2023/08/18 07:48:58;;;;;;;37.80;21.73;;;;;;;19.77;100.00;101051.84;5088001;28;20218;-79
2023/08/18 07:51:25;;;;;;;32.13;20.70;;;;;;;19.91;100.00;101047.81;5089989;28;20199;-78
2023/08/18 07:53:51;;;;;;;27.33;19.20;;;;;;;20.05;100.00;101052.75;5087313;28;20231;-79
2023/08/18 07:56:18;;;;;;;31.27;18.97;;;;;;;20.20;100.00;101046.84;5090096;28;20294;-79
2023/08/18 07:58:46;;;;;;;21.13;16.45;;;;;;;20.30;100.00;101050.34;5086834;28;20875;-79
2023/08/18 08:01:12;;;;;;;19.38;15.82;;;;;;;20.41;100.00;101059.16;5088775;28;20301;-79
2023/08/18 08:03:39;;;;;;;19.45;15.60;;;;;;;20.53;100.00;101053.53;5088446;28;20211;-80
2023/08/18 08:06:05;;;;;;;18.63;14.43;;;;;;;20.63;100.00;101052.47;5087125;28;20204;-79
2023/08/18 08:08:32;;;;;;;18.77;15.35;;;;;;;20.71;100.00;101043.59;5085169;28;20208;-79
2023/08/18 08:10:58;;;;;;;16.95;14.15;;;;;;;20.81;100.00;101044.34;5092437;28;20274;-82
2023/08/18 08:13:26;;;;;;;19.58;14.95;;;;;;;20.94;100.00;101047.56;5084429;28;20223;-81
2023/08/18 08:15:53;;;;;;;19.33;14.15;;;;;;;21.03;100.00;101043.06;5088626;28;20221;-81
2023/08/18 08:18:20;;;;;;;19.83;14.70;;;;;;;21.14;100.00;101042.81;5090108;28;20199;-82
2023/08/18 08:20:46;;;;;;;22.00;14.80;;;;;;;21.28;100.00;101046.88;5089279;28;20609;-82
2023/08/18 08:23:15;;;;;;;21.15;14.88;;;;;;;21.42;99.71;101041.75;5088494;28;20220;-81
2023/08/18 08:25:41;;;;;;;21.98;17.05;;;;;;;21.60;98.00;101041.69;5088407;28;20219;-83
2023/08/18 08:28:08;;;;;;;22.98;17.73;;;;;;;21.74;97.04;101043.81;5087361;28;20207;-80
2023/08/18 08:30:35;;;;;;;22.42;18.20;;;;;;;21.91;97.11;101041.19;5084836;28;20203;-82
2023/08/18 08:33:03;;;;;;;22.48;17.90;;;;;;;22.03;93.28;101048.94;5083700;28;20200;-83
2023/08/18 08:35:30;;;;;;;20.58;17.17;;;;;;;22.16;94.01;101040.34;5087248;28;20212;-83
2023/08/18 08:37:56;;;;;;;21.77;17.55;;;;;;;22.30;92.66;101049.75;5087978;28;20690;-84
2023/08/18 08:40:23;;;;;;;19.48;16.67;;;;;;;22.42;92.33;101041.13;5084687;28;20208;-83
2023/08/18 08:42:53;;;;;;;19.52;16.55;;;;;;;22.61;91.77;101052.72;5083448;28;20208;-81
2023/08/18 08:45:20;;;;;;;23.17;17.27;;;;;;;22.79;91.41;101057.03;5087289;28;20210;-81
2023/08/18 08:47:48;;;;;;;22.02;18.60;;;;;;;22.92;89.75;101056.59;5087697;28;20584;-81
2023/08/18 08:50:17;;;;;;;22.38;17.65;;;;;;;23.04;89.03;101048.94;5088626;28;20209;-81
2023/08/18 08:52:48;;;;;;;26.08;19.05;;;;;;;23.20;87.96;101051.69;5087242;28;20196;-81
2023/08/18 08:55:17;;;;;;;24.02;17.60;;;;;;;23.34;85.40;101055.56;5087866;28;20208;-81
2023/08/18 08:57:44;;;;;;;19.58;17.33;;;;;;;23.41;84.82;101052.03;5088679;28;20200;-82
2023/08/18 09:00:11;;;;;;;19.83;15.38;;;;;;;23.51;84.27;101044.56;5085609;28;20218;-81
2023/08/18 09:02:39;;;;;;;19.55;14.77;;;;;;;23.58;83.62;101058.31;5088659;28;20219;-82
2023/08/18 09:05:06;;;;;;;14.88;12.45;;;;;;;23.62;83.79;101034.38;5087874;28;20223;-82
2023/08/18 09:07:34;;;;;;;11.35;10.15;;;;;;;23.67;84.20;101051.84;5086956;28;20225;-83
2023/08/18 09:10:01;;;;;;;12.35;10.35;;;;;;;23.69;83.37;101044.34;5089006;28;20207;-81
2023/08/18 09:12:29;;;;;;;11.45;10.25;;;;;;;23.77;83.11;101043.50;5081423;28;20196;-82
2023/08/18 09:14:55;;;;;;;10.65;9.55;;;;;;;23.87;83.03;101042.28;5086911;28;20219;-83
2023/08/18 09:17:22;;;;;;;11.07;9.98;;;;;;;23.99;83.24;101040.06;5084410;28;20206;-82
2023/08/18 09:19:50;;;;;;;11.52;9.55;;;;;;;24.15;83.62;101031.84;5087860;28;20204;-83
2023/08/18 09:22:20;;;;;;;9.80;8.55;;;;;;;24.34;83.50;101033.31;5086713;28;20231;-81
2023/08/18 09:24:49;;;;;;;8.95;7.72;;;;;;;24.43;81.50;101020.50;5090682;28;20813;-81
2023/08/18 09:27:16;;;;;;;8.20;7.40;;;;;;;24.54;81.94;101020.13;5095252;28;20679;-81
2023/08/18 09:29:42;;;;;;;7.43;6.72;;;;;;;24.65;80.54;101025.16;5089322;28;20652;-83
2023/08/18 09:32:09;;;;;;;7.85;7.15;;;;;;;24.76;79.85;101016.56;5093154;28;20203;-81
2023/08/18 09:34:37;;;;;;;7.75;7.05;;;;;;;24.88;79.35;101012.41;5089076;28;20779;-82
2023/08/18 09:37:04;;;;;;;7.82;7.03;;;;;;;24.99;80.44;101008.44;5090474;28;20200;-82
2023/08/18 09:39:30;;;;;;;8.10;7.40;;;;;;;25.07;78.75;101011.09;5088213;28;20207;-80
2023/08/18 09:41:59;;;;;;;8.63;7.82;;;;;;;25.15;77.80;101002.00;5085266;28;20224;-81
2023/08/18 09:44:27;;;;;;;8.35;7.50;;;;;;;25.24;78.42;100998.19;5087797;28;20235;-81
2023/08/18 09:46:56;;;;;;;8.85;7.15;;;;;;;25.37;78.62;100989.38;5088062;28;20192;-81
2023/08/18 09:49:24;;;;;;;8.75;7.88;;;;;;;25.50;77.64;100986.84;5085377;28;20208;-80
2023/08/18 09:51:52;;;;;;;8.98;8.13;;;;;;;25.53;76.90;100981.03;5090674;28;20204;-83
2023/08/18 09:54:20;;;;;;;8.50;7.60;;;;;;;25.60;76.26;100990.16;5089238;28;20223;-79
2023/08/18 09:56:49;;;;;;;8.70;7.90;;;;;;;25.66;75.36;100983.97;5088311;28;20825;-82
2023/08/18 09:59:22;;;;;;;7.90;7.20;;;;;;;25.72;75.37;100979.66;5083787;28;20232;-82
2023/08/18 10:01:51;;;;;;;8.35;7.65;;;;;;;25.82;74.84;100981.06;5087262;28;20223;-82
2023/08/18 10:04:18;;;;;;;8.07;7.28;;;;;;;25.96;74.43;100964.88;5086678;28;20239;-81
2023/08/18 10:06:45;;;;;;;7.35;6.75;;;;;;;26.08;74.06;100971.56;5089508;28;20676;-80
2023/08/18 10:09:12;;;;;;;7.43;6.82;;;;;;;26.23;74.40;100978.69;5091281;28;20204;-80
2023/08/18 10:11:40;;;;;;;6.57;6.07;;;;;;;26.35;73.41;100964.56;5086597;28;20200;-82
2023/08/18 10:14:07;;;;;;;7.35;6.75;;;;;;;26.42;74.10;100969.06;5091909;28;20223;-80
2023/08/18 10:16:36;;;;;;;7.25;6.55;;;;;;;26.50;73.09;100962.66;5096921;28;20653;-81
2023/08/18 10:19:04;;;;;;;7.22;6.63;;;;;;;26.60;73.52;100968.63;5094941;28;20200;-80
2023/08/18 10:21:30;;;;;;;7.07;6.47;;;;;;;26.62;71.64;100958.34;5091090;28;20628;-80
2023/08/18 10:23:57;;;;;;;6.80;6.30;;;;;;;26.62;71.41;100955.63;5089384;28;20223;-82
2023/08/18 10:26:24;;;;;;;6.75;6.10;;;;;;;26.64;72.43;100956.28;5092396;28;20211;-82
2023/08/18 10:28:51;;;;;;;7.47;6.45;;;;;;;26.70;72.16;100952.75;5090125;28;20262;-82
2023/08/18 10:31:17;;;;;;;7.30;6.65;;;;;;;26.76;72.02;100962.91;5089697;28;20203;-82
2023/08/18 10:33:49;;;;;;;6.57;6.07;;;;;;;26.91;73.44;100960.09;5090678;28;20610;-82
2023/08/18 10:36:21;;;;;;;6.78;6.18;;;;;;;27.03;71.82;100958.59;5092312;28;20261;-80
2023/08/18 10:38:47;;;;;;;6.88;6.35;;;;;;;27.07;70.24;100951.66;5085405;28;20234;-81
2023/08/18 10:41:14;;;;;;;6.85;6.30;;;;;;;27.15;70.82;100950.69;5092917;28;20228;-83
2023/08/18 10:43:47;;;;;;;6.22;5.63;;;;;;;27.26;70.33;100948.25;5090386;28;20231;-83
2023/08/18 10:46:14;;;;;;;6.65;6.15;;;;;;;27.32;70.41;100949.34;5090161;28;20207;-82
2023/08/18 10:48:40;;;;;;;6.50;5.90;;;;;;;27.43;70.24;100948.78;5091945;28;20208;-84
2023/08/18 10:51:08;;;;;;;6.57;5.95;;;;;;;27.56;70.73;100953.53;5092734;28;20200;-83
2023/08/18 10:53:37;;;;;;;6.63;6.03;;;;;;;27.67;69.50;100952.13;5090559;28;20242;-82
2023/08/18 10:56:04;;;;;;;6.53;6.00;;;;;;;27.75;68.95;100946.50;5091185;28;20200;-82
2023/08/18 10:58:31;;;;;;;6.55;5.95;;;;;;;27.83;68.57;100941.69;5092748;28;20211;-82
2023/08/18 11:00:58;;;;;;;6.35;5.78;;;;;;;27.95;68.87;100936.47;5094321;28;20207;-80
2023/08/18 11:03:26;;;;;;;10.70;6.78;;;;;;;28.10;68.52;100944.56;5084886;28;20220;-80
2023/08/18 11:05:52;;;;;;;6.57;5.97;;;;;;;28.23;66.80;100937.28;5084512;28;20196;-81